Tiempo atmosférico en la estación meteorológica de Tenerife Sur Aeropuerto, Santa Cruz de Tenerife (64 m.)



Fecha
DESCASC
Temp. máxima en grados centígrados (hora)
DESCASC
Temp. mínima en grados centígrados (hora)
DESCASC
Temp. media en grados centígrados
DESCASC
Racha de viento máxima en m/sg (hora)
DESCASC
Velocidad máxima media en intervalos de 10 minutos(hora)
DESCASC
Precipitaciones diarias en mm
DESCASC
Precipitaciones de 00:00 a 06:00 en mm
DESCASC
Precipitaciones de 06:00 a 12:00 en mm
DESCASC
Precipitaciones de 12:00 a 18:00 en mm
DESCASC
Precipitaciones de 18:00 a 24:00 en mm
DESCASC
02-04-2020 23 (14:10) 15.1 (06:40) 19.1 11.67 (14:10) 9.17 (14:20) 0 0 0 0 0
01-04-2020 22.6 (12:20) 16.1 (08:20) 19.4 8.33 (12:00) 6.11 (11:20) 0 0 0 0 0
31-03-2020 23.7 (18:00) 16.2 (00:00) 20 8.89 (17:10) 6.94 (17:10) 0 0 0 0 0
30-03-2020 23 (17:10) 13.9 (07:50) 18.4 13.89 (17:00) 10 (17:30) 0 0 0 0 0
29-03-2020 21.7 (16:40) 14 (00:00) 17.9 10.28 (18:40) 7.78 (18:40) 0 0 0 0 0
28-03-2020 21.3 (10:40) 14.7 (00:00) 18 10.28 (13:20) 6.67 (13:10) 0 0 0 0 0
27-03-2020 21.8 (13:10) 14.2 (00:00) 18 8.33 (14:20) 6.39 (14:30) 0 0 0 0 0
26-03-2020 20.9 (11:20) 15.6 (00:00) 18.3 7.78 (11:00) 5.56 (14:10) 0.4 0 0.4 0 0
25-03-2020 21.7 (11:30) 16.2 (00:00) 19 9.17 (11:50) 6.67 (11:50) 0.7 0 0 0.6 0.1
24-03-2020 23.3 (16:40) 14.6 (00:00) 18.9 9.72 (18:10) 7.22 (13:50) 0 0 0 0 0
23-03-2020 22.8 (17:00) 13.9 (00:00) 18.3 13.89 (11:20) 10.28 (12:30) 0 0 0 0 0
22-03-2020 22.2 (16:10) 15.2 (23:10) 18.7 12.5 (16:20) 7.22 (17:50) 0 0 0 0 0
21-03-2020 20.8 (13:00) 16.5 (00:00) 18.6 13.33 (09:50) 9.72 (12:00) 0 0 0 0 0
20-03-2020 23.3 (12:20) 15 (00:00) 19.1 12.78 (13:00) 8.89 (14:10) 0 0 0 0 0
19-03-2020 24.1 (15:00) 13.7 (00:00) 18.9 12.78 (17:20) 8.61 (16:10) 0 0 0 0 0
18-03-2020 22.1 (13:10) 13.9 (00:00) 18 8.89 (14:20) 6.11 (14:20) -- 0 -- 0 0
17-03-2020 21.5 (13:50) 15.1 (00:00) 18.3 18.89 (12:40) 13.33 (13:10) 0 0 0 0 0
16-03-2020 22.9 (12:20) 15.1 (00:00) 19 21.11 (11:50) 14.17 (11:50) 0 0 0 0 0
15-03-2020 21.7 (10:40) 14.3 (00:00) 18 13.89 (11:40) 9.72 (11:50) 0 0 0 0 0
14-03-2020 22.6 (13:00) 16.9 (00:00) 19.8 15.28 (12:00) 11.39 (09:10) 0 0 0 0 0
13-03-2020 24 (13:30) 17 (05:10) 20.5 16.39 (10:20) 12.22 (10:20) 0 0 0 0 0
12-03-2020 26.8 (14:20) 14 (00:00) 20.4 13.33 (13:30) 10.28 (13:30) 0 0 0 0 0
11-03-2020 25.4 (16:40) 14.5 (00:00) 19.9 10.28 (13:00) 8.33 (13:00) 0 0 0 0 0
10-03-2020 26.6 (10:20) 16.6 (00:00) 21.6 13.33 (02:30) 10.28 (02:40) 0 0 0 0 0
09-03-2020 27.6 (13:50) 17.1 (00:00) 22.4 18.89 (00:40) 13.89 (02:50) 0 0 0 0 0
08-03-2020 26.3 (14:40) 14.8 (00:00) 20.5 16.11 (14:10) 12.5 (15:30) 0 0 0 0 0
07-03-2020 24.1 (13:30) 15.9 (00:00) 20 18.06 (00:20) 12.78 (18:20) 0 0 0 0 0
06-03-2020 22.8 (14:30) 17 (00:00) 19.9 24.17 (09:40) 17.78 (10:10) 0 0 0 0 0
05-03-2020 23.8 (14:40) 17.5 (00:00) 20.6 18.61 (22:50) 13.33 (15:10) 0 0 0 0 0

Gráficas

Temp. máximas Temp. mínimas Temp. medias Precipitaciones Rachas de viento máximas Velocidades máximas media en intervalos de 10 minutos

Datos horarios

Fecha y hora oficial Temperatura (ºC) Velocidad del viento (km/h) Dirección del viento Racha (km/h) Dirección de racha Precipitación (mm) Presión (hPa) Tendencia (hPa) Humedad (%)
2020-04-03 23:00:00 19.2 25 Oeste 35 Oeste 4.6 1002.2 1 94
2020-04-03 22:00:00 19.1 16 Oeste 30 Oeste 1 1001.8 0.3 93
2020-04-03 21:00:00 18.6 17 Oeste 24 Oeste 0.6 1001.6 0.2 95
2020-04-03 20:00:00 18.5 18 Oeste 26 Oeste 0.7 1001.2 -0.4 93
2020-04-03 19:00:00 18.8 20 Oeste 41 Sudoeste 0.4 1001.5 -0.3 91
2020-04-03 18:00:00 20 29 Sudoeste 41 Sudoeste 0 1001.4 -1 76
2020-04-03 17:00:00 20.5 34 Sudoeste 46 Sudoeste 0 1001.6 -1.4 72
2020-04-03 16:00:00 21.4 35 Sudoeste 48 Sudoeste 0 1001.8 -2.1 69
2020-04-03 15:00:00 22.1 37 Sudoeste 50 Sudoeste 0 1002.4 -1.5 65
2020-04-03 14:00:00 21.7 38 Sudoeste 48 Sudoeste 0 1003 -1.3 65
2020-04-03 13:00:00 21.4 34 Sudoeste 45 Sudoeste 0 1003.9 -0.6 66
2020-04-03 12:00:00 20.5 29 Sudoeste 39 Sudoeste 0 1003.9 -0.7 67
2020-04-03 11:00:00 20.7 23 Sudoeste 33 Sudoeste 0 1004.3 0.3 67
2020-04-03 10:00:00 19.1 11 Sudoeste 17 Sudoeste 0 1004.5 0.5 70
2020-04-03 09:00:00 17.1 12 Oeste 17 Oeste 0 1004.6 0.7 73
2020-04-03 08:00:00 15.6 9 Norte 11 Norte 0 1004 -0.2 75
2020-04-03 07:00:00 15.6 7 Norte 11 Norte 0 1004 -1.1 74
2020-04-03 06:00:00 16.9 5 Norte -- -- 0 1003.9 -1.6 70
2020-04-03 05:00:00 17.4 5 Este 8 Este 0 1004.2 -2.2 73
2020-04-03 04:00:00 17.6 4 Nordeste 8 Nordeste 0 1005.1 -2.1 74
2020-04-03 03:00:00 17.5 5 Este 11 Este 0 1005.5 -2.4 76
2020-04-03 02:00:00 18 9 Este 13 Este 0 1006.4 -1.4 75
2020-04-03 01:00:00 18.1 7 Este 13 Este 0 1007.2 -0.5 76
2020-04-03 00:00:00 18.6 9 Este 13 Este 0 1007.9 0.7 74
2020-04-02 23:00:00 18.4 9 Este 13 Este 0 1007.8 0.7 75
2020-04-02 22:00:00 18.7 9 Este 15 Este 0 1007.7 0.9 74
2020-04-02 21:00:00 18.7 11 Este 15 Este 0 1007.2 0.4 75
2020-04-02 20:00:00 19.2 13 Este 26 Este 0 1007.1 0.1 73
2020-04-02 19:00:00 20.6 19 Este 33 Este 0 1006.8 -0.9 67
2020-04-02 18:00:00 21.1 25 Este 37 Este 0 1006.8 -1.2 65
2020-04-02 17:00:00 22.1 28 Este 41 Este 0 1007 -1.6 59
2020-04-02 16:00:00 22 27 Este 41 Este 0 1007.7 -1.4 62
2020-04-02 15:00:00 22.7 30 Este 42 Este 0 1008 -1.9 54
2020-04-02 14:00:00 22.2 32 Este 41 Este 0 1008.6 -0.8 56
2020-04-02 13:00:00 22 28 Este 39 Este 0 1009.1 0.2 59
2020-04-02 12:00:00 21.5 24 Este 35 Este 0 1009.9 2.1 59
2020-04-02 11:00:00 20.8 25 Este 33 Este 0 1009.4 1.4 60
2020-04-02 10:00:00 20 19 Este 32 Nordeste 0 1008.9 1.5 61
2020-04-02 09:00:00 17.7 14 Nordeste 18 Nordeste 0 1007.8 1 61
2020-04-02 08:00:00 15.7 15 Norte 21 Nordeste 0 1008 1.1 65
2020-04-02 07:00:00 15.6 12 Norte 21 Nordeste 0 1007.4 -0.1 72
2020-04-02 06:00:00 15.8 15 Norte 22 Nordeste 0 1006.8 -1.4 71
2020-04-02 05:00:00 15.8 12 Nordeste 18 Norte 0 1006.9 -1.9 73
2020-04-02 04:00:00 15.6 13 Norte 17 Norte 0 1007.5 -2.1 73
2020-04-02 03:00:00 16.6 13 Norte 18 Norte 0 1008.2 -1.2 69
2020-04-02 02:00:00 16.8 12 Norte 17 Norte 0 1008.8 -0.5 70
2020-04-02 01:00:00 16.9 10 Norte 13 Norte 0 1009.6 0.8 72
2020-04-02 00:00:00 18.1 10 Nordeste 17 Nordeste 0 1009.4 1.3 74
2020-04-01 23:00:00 18.2 13 Nordeste 17 Nordeste 0 1009.3 1.6 74
2020-04-01 22:00:00 18.5 12 Nordeste 17 Nordeste 0 1008.8 1.3 74
2020-04-01 21:00:00 18.8 13 Este 24 Este 0 1008.1 0.6 71
2020-04-01 20:00:00 19.5 17 Este 24 Este 0 1007.7 0.2 70
2020-04-01 19:00:00 19.9 14 Este 21 Este 0 1007.5 -0.1 68
2020-04-01 18:00:00 20.1 11 Este 21 Este 0 1007.5 -0.5 66
2020-04-01 17:00:00 20.2 15 Este 21 Este 0 1007.5 -0.9 67
2020-04-01 16:00:00 20.8 12 Este 24 Sudeste 0 1007.6 -1.2 63
2020-04-01 15:00:00 21.1 17 Este 26 Este 0 1008 -1.1 62
2020-04-01 14:00:00 21.3 16 Sudeste 28 Este 0 1008.4 -0.6 61
2020-04-01 13:00:00 21.7 21 Este 30 Este 0 1008.8 -0.1 61
2020-04-01 12:00:00 21.4 20 Este 30 Este 0 1009.1 0.9 61
2020-04-01 11:00:00 21.2 21 Este 28 Este 0 1009 1.3 63
2020-04-01 10:00:00 19.3 13 Nordeste 21 Nordeste 0 1008.9 2 70
2020-04-01 09:00:00 18 11 Nordeste 17 Nordeste 0 1008.2 1.5 72
2020-04-01 08:00:00 16.5 10 Nordeste 17 Nordeste 0 1007.7 0.7 77
2020-04-01 07:00:00 16.7 13 Nordeste 21 Nordeste 0 1006.9 -0.1 79
2020-04-01 06:00:00 17.8 13 Nordeste 22 Nordeste 0 1006.7 -0.8 80
2020-04-01 05:00:00 18.4 12 Nordeste 18 Este 0 1007 -0.8 83
2020-04-01 04:00:00 18.2 9 Nordeste 13 Nordeste 0 1007 -0.9 78
2020-04-01 03:00:00 18.7 10 Norte 13 Norte 0 1007.5 -0.4 78
2020-04-01 02:00:00 18.3 9 Nordeste 18 Este 0 1007.8 0.1 80
2020-04-01 01:00:00 18.5 17 Este 22 Este 0 1007.9 0.9 78
2020-04-01 00:00:00 19.4 14 Nordeste 17 Nordeste 0 1007.9 1.7 77
2020-03-31 23:00:00 19.1 11 Nordeste 13 Nordeste 0 1007.7 1.9 69
2020-03-31 22:00:00 19.8 7 Nordeste 15 Oeste 0 1007 1.6 65
2020-03-31 21:00:00 20.9 12 Oeste 21 Oeste 0 1006.2 0.7 58
2020-03-31 20:00:00 22 14 Sudoeste 22 Sudoeste 0 1005.8 0.6 55
2020-03-31 19:00:00 23 18 Sur 28 Sudoeste 0 1005.4 0 52
2020-03-31 18:00:00 23.5 21 Sudoeste 32 Sur 0 1005.5 -0.4 50
2020-03-31 17:00:00 22.7 24 Sudoeste 30 Sudoeste 0 1005.2 -0.7 61
2020-03-31 16:00:00 22.3 19 Sudoeste 26 Sudoeste 0 1005.4 -0.7 62
2020-03-31 15:00:00 22.9 18 Sudoeste 26 Sur 0 1005.9 -0.1 62
2020-03-31 14:00:00 22.4 13 Sudoeste 21 Sudoeste 0 1005.9 0.4 64
2020-03-31 13:00:00 21.8 13 Sudoeste 22 Sur 0 1006.1 0.9 65
2020-03-31 12:00:00 21.2 15 Sur 24 Sudeste 0 1006 1.1 69
2020-03-31 11:00:00 21.2 13 Este 18 Sudeste 0 1005.5 0.8 69
2020-03-31 10:00:00 18.9 3 Noroeste 11 Norte 0 1005.2 1 74
2020-03-31 09:00:00 17.9 7 Noroeste 11 Noroeste 0 1004.9 1.1 79
2020-03-31 08:00:00 16.8 5 Nordeste 11 Norte 0 1004.7 0.9 83
2020-03-31 07:00:00 16.5 10 Nordeste 11 Nordeste 0 1004.2 -0.1 85
2020-03-31 06:00:00 16.6 9 Nordeste 11 Nordeste 0 1003.8 -0.7 84
2020-03-31 05:00:00 17.9 7 Norte 9 Norte 0 1003.8 -1.1 83
2020-03-31 04:00:00 17.7 5 Norte 5 Norte 0 1004.3 -0.8 77
2020-03-31 03:00:00 17.6 5 Noroeste 11 Norte 0 1004.5 -0.7 78
2020-03-31 02:00:00 16.4 8 Norte 11 Norte 0 1004.9 -0.4 78
2020-03-31 01:00:00 -- 8 Norte 9 Norte 0 1005.1 -0.1 --
2020-03-31 00:00:00 17.5 7 Norte 9 Nordeste 0 1005.2 0.5 73
2020-03-30 23:00:00 18.3 7 Norte 9 Norte 0 1005.3 1.5 74
2020-03-30 22:00:00 19.2 6 Sudeste 15 Este 0 1005.2 1.2 74
2020-03-30 21:00:00 20.7 12 Este 22 Oeste 0 1004.7 0.5 65
2020-03-30 20:00:00 22.5 18 Oeste 35 Oeste 0 1003.8 -0.7 59
2020-03-30 19:00:00 22.3 26 Oeste 41 Sudoeste 0 1004 -1.4 59
2020-03-30 18:00:00 22.8 31 Oeste 46 Oeste 0 1004.2 -2.1 59
2020-03-30 17:00:00 22.6 33 Oeste 50 Oeste 0 1004.5 -2.6 58
2020-03-30 16:00:00 22.1 33 Sudoeste 48 Sudoeste 0 1005.4 -2.2 58
2020-03-30 15:00:00 21.8 31 Sudoeste 41 Sudoeste 0 1006.3 -1.8 62
2020-03-30 14:00:00 22 28 Sudoeste 37 Sudoeste 0 1007.1 -0.8 61
2020-03-30 13:00:00 20.9 19 Sudoeste 30 Sudoeste 0 1007.6 -0.1 64
2020-03-30 12:00:00 19.6 13 Sudoeste 21 Sur 0 1008.1 0.5 70
2020-03-30 11:00:00 19.6 13 Sur 21 Sudoeste 0 1007.9 0.7 69
2020-03-30 10:00:00 19.3 9 Sur 13 Sur 0 1007.7 1 71
2020-03-30 09:00:00 16.7 9 Noroeste -- -- 0 1007.6 1 72
2020-03-30 08:00:00 14 13 Noroeste -- -- 0 1007.2 0.2 77
2020-03-30 07:00:00 14.3 13 Norte 15 Norte 0 1006.7 -0.8 78
2020-03-30 06:00:00 14.9 13 Norte 15 Norte 0 1006.6 -1.7 75
2020-03-30 05:00:00 15.3 12 Norte 15 Norte 0 1007 -2 74
2020-03-30 04:00:00 15.7 10 Norte 15 Norte 0 1007.5 -1.7 72
2020-03-30 03:00:00 15.2 11 Norte 13 Norte 0 1008.3 -1 73
2020-03-30 02:00:00 16.3 5 Oeste 9 Noroeste 0 1009 -0.2 71
2020-03-30 01:00:00 16.2 5 Nordeste 9 Nordeste 0 1009.2 0.1 70
2020-03-30 00:00:00 16.7 9 Nordeste 13 Nordeste 0 1009.3 0.7 71
2020-03-29 23:00:00 16.9 10 Nordeste 13 Nordeste 0 1009.2 0.4 71
2020-03-29 22:00:00 17.9 9 Sudoeste 22 Sudoeste 0 1009.1 0 70
2020-03-29 21:00:00 18.5 16 Sudoeste 26 Sudoeste 0 1008.6 -0.4 67
2020-03-29 20:00:00 20.1 18 Sudoeste 33 Sudoeste 0 1008.8 -0.4 59
2020-03-29 19:00:00 20 25 Sudoeste 37 Sudoeste 0 1009.1 -0.9 63
2020-03-29 18:00:00 21.2 26 Sudoeste 33 Sudoeste 0 1009 -1.9 58
2020-03-29 17:00:00 21.4 24 Sudoeste 35 Sudoeste 0 1009.2 -2.3 57
2020-03-29 16:00:00 21 20 Sudoeste 28 Sudoeste 0 1010 -1.4 61
2020-03-29 15:00:00 21.3 16 Sudoeste 26 Sur 0 1010.9 -0.7 61
2020-03-29 14:00:00 21.1 17 Sudoeste 28 Sudoeste 0 1011.5 -0.1 61
2020-03-29 13:00:00 20.7 15 Sur 22 Sur 0 1011.4 0.2 61
2020-03-29 12:00:00 20.1 13 Sur 22 Sur 0 1011.6 0.8 61
2020-03-29 11:00:00 20.4 12 Este 21 Sudeste 0 1011.6 1.1 63
2020-03-29 10:00:00 18.1 7 Nordeste 11 Nordeste 0 1011.2 1.2 74
2020-03-29 09:00:00 15.3 11 Norte 13 Norte 0 1010.8 0.8 77
2020-03-29 08:00:00 14.5 12 Norte 17 Norte 0 1010.5 0.6 79
2020-03-29 07:00:00 14.3 12 Norte 15 Norte 0 1010 -0.3 79
2020-03-29 06:00:00 14.5 12 Norte 15 Norte 0 1010 -1 80
2020-03-29 05:00:00 14.3 8 Norte 13 Norte 0 1009.9 -1.6 78
2020-03-29 04:00:00 14.9 12 Norte 13 Norte 0 1010.3 -1.4 76
2020-03-29 00:00:00 16.5 5 Norte 8 Norte 0 1011.7 1 73
2020-03-28 23:00:00 17.6 5 Norte 9 Norte 0 1011.5 1.3 71
2020-03-28 22:00:00 17.6 7 Norte 13 Nordeste 0 1011.5 1.7 72
2020-03-28 21:00:00 18 9 Norte 17 Nordeste 0 1010.7 1 70
2020-03-28 20:00:00 18 13 Nordeste 21 Nordeste 0 1010.2 1.2 71
2020-03-28 19:00:00 18.6 15 Nordeste 21 Nordeste 0 1009.8 1.2 70
2020-03-28 18:00:00 18 13 Norte 26 Norte 0 1009.7 1.1 75
2020-03-28 17:00:00 19.3 14 Nordeste 26 Este 0 1009 0.1 67
2020-03-28 16:00:00 20.1 17 Este 26 Nordeste 0 1008.6 -0.4 62
2020-03-28 15:00:00 19.6 15 Este 28 Este 0 1008.6 -0.7 65
2020-03-28 14:00:00 19.9 21 Este 37 Este 0 1008.9 -0.6 63
2020-03-28 13:00:00 21.1 22 Este 33 Este 0 1009 -0.3 56
2020-03-28 12:00:00 19.4 18 Este 28 Sudeste 0 1009.3 0.7 60
2020-03-28 11:00:00 20.1 18 Este 30 Este 0 1009.5 1.5 58
2020-03-28 10:00:00 20.1 12 Sur 18 Sur 0 1009.3 2 64
2020-03-28 09:00:00 19.5 6 Sur 11 Noroeste 0 1008.6 1.8 63
2020-03-28 08:00:00 16.9 10 Noroeste 13 Noroeste 0 1008 1.5 72
2020-03-28 07:00:00 15.2 6 Noroeste 11 Norte 0 1007.3 1.1 78
2020-03-28 06:00:00 15.9 3 Norte 11 Sur 0 1006.8 0.7 75
2020-03-28 05:00:00 16.6 7 Norte 13 Noroeste 0 1006.5 0 76
2020-03-28 04:00:00 16 10 Noroeste 17 Noroeste 0 1006.2 -0.5 80
2020-03-28 03:00:00 15.7 14 Noroeste 18 Noroeste 0 1006.1 -0.9 76
2020-03-28 02:00:00 15.8 15 Noroeste 18 Noroeste 0 1006.5 -0.1 72
2020-03-28 01:00:00 15.5 11 Noroeste 11 Noroeste 0 1006.7 0.3 77
2020-03-28 00:00:00 16.2 0 Calma 4 Norte 0 1007 1.1 73
2020-03-27 23:00:00 17.1 3 Norte 5 Noroeste 0 1006.6 1.4 70
2020-03-27 22:00:00 17.8 6 Nordeste 8 Nordeste 0 1006.4 1.7 74
2020-03-27 21:00:00 18.3 7 Nordeste 15 Nordeste 0 1005.9 1.4 72
2020-03-27 20:00:00 18.6 12 Este 17 Este 0 1005.2 1 70
2020-03-27 19:00:00 19.4 13 Sudeste 18 Este 0 1004.7 0.5 68
2020-03-27 18:00:00 19.7 15 Sudeste 22 Sudeste 0 1004.5 -0.2 67
2020-03-27 17:00:00 20.3 14 Este 26 Este 0 1004.2 -0.9 64
2020-03-27 16:00:00 21.1 15 Este 24 Este 0 1004.2 -1.5 61
2020-03-27 15:00:00 20.4 19 Este 30 Este 0 1004.7 -1.5 64
2020-03-27 14:00:00 21 19 Este 28 Este 0 1005.1 -1.2 59
2020-03-27 13:00:00 20.6 11 Sudeste 22 Este 0 1005.7 -0.6 60
2020-03-27 12:00:00 20.8 14 Sudeste 26 Sudeste 0 1006.2 0.5 61
2020-03-27 11:00:00 20.8 15 Este 24 Este 0 1006.3 1.1 58
2020-03-27 10:00:00 19.6 3 Sur 15 Este 0 1006.3 1.4 65
2020-03-27 09:00:00 18.2 3 Sudoeste 9 Oeste 0 1005.7 1 69
2020-03-27 08:00:00 16.9 6 Norte 9 Norte 0 1005.2 0.5 76
2020-03-27 07:00:00 16.3 9 Noroeste 13 Noroeste 0 1004.9 0.1 76
2020-03-27 06:00:00 -- 9 Noroeste 13 Noroeste 0 1004.7 -0.7 --
2020-03-27 05:00:00 15 11 Noroeste 13 Noroeste 0 1004.7 -1.1 79
2020-03-27 04:00:00 15.4 8 Noroeste 15 Noroeste 0 1004.8 -1.4 76
2020-03-27 03:00:00 14.4 11 Norte 13 Norte 0 1005.4 -1.1 80
2020-03-27 02:00:00 14.7 8 Norte 15 Norte 0 1005.8 -0.7 78
2020-03-27 01:00:00 15.3 14 Norte 17 Norte 0 1006.2 -0.1 75
2020-03-27 00:00:00 15.7 11 Norte 15 Norte 0 1006.5 0.3 77
2020-03-26 23:00:00 16.2 10 Norte 15 Nordeste 0 1006.5 0.8 75
2020-03-26 22:00:00 16.5 12 Nordeste 15 Nordeste 0 1006.3 0.7 78
2020-03-26 21:00:00 17.3 11 Nordeste 21 Este 0 1006.2 0.6 76
2020-03-26 20:00:00 18.1 5 Nordeste 9 Este 0 1005.7 0.2 62
2020-03-26 19:00:00 18.3 8 Noroeste 15 Noroeste 0 1005.6 0.1 61
2020-03-26 18:00:00 18.7 4 Noroeste 17 Norte 0 1005.6 -0.7 57
2020-03-26 17:00:00 19.3 12 Sudeste 17 Sudeste 0 1005.5 -1.4 55
2020-03-26 16:00:00 19.6 5 Sudeste 13 Este 0 1005.5 -1.9 51
2020-03-26 15:00:00 18.6 9 Nordeste 28 Noroeste 0 1006.3 -1.5 56
2020-03-26 14:00:00 19.3 17 Noroeste 28 Noroeste 0 1006.9 -1 59
2020-03-26 13:00:00 19.2 10 Sudeste 24 Este 0 1007.4 -0.3 58
2020-03-26 12:00:00 19.9 17 Este 26 Sudeste 0 1007.8 0.6 60
2020-03-26 11:00:00 20.4 17 Este 28 Este 0 1007.9 1.1 58
2020-03-26 10:00:00 19.8 14 Este 21 Este 0 1007.7 0.8 56
2020-03-26 09:00:00 18.4 10 Este 17 Nordeste 0 1007.2 0.8 60
2020-03-26 08:00:00 16.6 11 Norte 17 Norte 0.1 1006.8 0.7 71
2020-03-26 07:00:00 16.5 11 Nordeste 17 Nordeste 0.3 1006.9 0.5 75
2020-03-26 06:00:00 16.7 13 Nordeste 17 Nordeste 0 1006.4 -0.4 70
2020-03-26 05:00:00 16.8 11 Nordeste 15 Norte 0 1006.1 -1.3 66
2020-03-26 04:00:00 16.7 12 Nordeste 15 Nordeste 0 1006.4 -1.7 67
2020-03-26 03:00:00 16.8 10 Nordeste 21 Nordeste 0 1006.8 -1.7 69
2020-03-26 02:00:00 17 15 Nordeste 21 Norte 0 1007.4 -1.3 66
2020-03-26 01:00:00 16.9 12 Nordeste 17 Nordeste 0 1008.1 -0.6 67
2020-03-26 00:00:00 17.3 12 Nordeste 18 Este 0 1008.5 0.5 70
2020-03-25 23:00:00 17.4 5 Nordeste 8 Nordeste 0 1008.7 1 71
2020-03-25 22:00:00 17.4 5 Norte 18 Nordeste 0 1008.7 1.1 69
2020-03-25 21:00:00 17.3 15 Nordeste 22 Nordeste 0 1008 0.2 67
2020-03-25 20:00:00 17.1 18 Nordeste 26 Nordeste 0 1007.7 -0.1 72
2020-03-25 19:00:00 16.9 15 Norte 26 Nordeste 0.1 1007.6 -0.3 76
2020-03-25 18:00:00 17.4 14 Noroeste 24 Noroeste 0.6 1007.8 -0.5 72
2020-03-25 17:00:00 19.5 14 Este 24 Este 0 1007.8 -0.8 58
2020-03-25 16:00:00 19.9 16 Este 24 Sudeste 0 1007.9 -1.3 59
2020-03-25 15:00:00 20.2 18 Este 30 Sudeste 0 1008.3 -0.9 58
2020-03-25 14:00:00 20.6 19 Este 30 Este 0 1008.6 -0.8 57
2020-03-25 13:00:00 20.3 21 Este 32 Este 0 1009.2 -0.2 57
2020-03-25 12:00:00 20.8 23 Este 33 Este 0 1009.2 0.2 57
2020-03-25 11:00:00 20.8 22 Este 32 Este 0 1009.4 0.8 53
2020-03-25 10:00:00 20.1 15 Nordeste 26 Nordeste 0 1009.4 1.3 55
2020-03-25 09:00:00 18.9 18 Nordeste 24 Nordeste 0 1009 1.5 58
2020-03-25 08:00:00 17.8 14 Nordeste 22 Nordeste 0 1008.6 1.3 62
2020-03-25 07:00:00 17.3 13 Nordeste 18 Nordeste 0 1008.1 1 61
2020-03-25 06:00:00 17.2 10 Nordeste 18 Nordeste 0 1007.5 0 65
2020-03-25 05:00:00 16.8 16 Nordeste 21 Nordeste 0 1007.3 -0.6 62
2020-03-25 04:00:00 16.3 7 Norte 13 Norte 0 1007.1 -1.2 69
2020-03-25 03:00:00 17 6 Sudoeste 15 Oeste 0 1007.5 -0.9 71
2020-03-25 02:00:00 17.5 11 Noroeste 17 Oeste 0 1007.9 -0.9 66
2020-03-25 01:00:00 17.8 13 Oeste 21 Oeste 0 1008.3 -0.4 67
2020-03-25 00:00:00 18.6 13 Oeste 21 Oeste 0 1008.4 0.2 67
2020-03-24 23:00:00 18.6 12 Oeste 17 Oeste 0 1008.8 0.9 66
2020-03-24 22:00:00 18.4 10 Oeste -- -- -- 1008.7 1 67
2020-03-24 21:00:00 18.6 7 Oeste 17 Este 0 1008.2 1.2 65
2020-03-24 20:00:00 19.1 16 Este 28 Sudeste 0 1007.9 1.6 65
2020-03-24 19:00:00 19.3 22 Este 35 Este 0 1007.7 1.1 68
2020-03-24 18:00:00 20.5 22 Este 32 Este 0 1007 -0.3 64
2020-03-24 17:00:00 22.5 15 Este 26 Este 0 1006.3 -1.6 44
2020-03-24 16:00:00 22.3 12 Sur 32 Sudeste 0 1006.6 -2 52
2020-03-24 15:00:00 22.1 22 Sur 32 Sur 0 1007.3 -1.6 56
2020-03-24 14:00:00 22.2 22 Sur 32 Sur 0 1007.9 -0.9 56
2020-03-24 13:00:00 22.1 24 Sudoeste 33 Sudoeste 0 1008.6 -0.1 56
2020-03-24 12:00:00 21.9 22 Sudoeste 32 Sudoeste 0 1008.9 0.9 54
2020-03-24 11:00:00 21.8 22 Sudoeste 30 Sudoeste 0 1008.8 1 56
2020-03-24 10:00:00 20.4 10 Sudoeste 22 Oeste 0 1008.7 1.5 61
2020-03-24 09:00:00 19.7 7 Sudoeste 11 Sudoeste 0 1008 1.3 63
2020-03-24 08:00:00 16 10 Norte 13 Norte 0 1007.8 1.3 66
2020-03-24 07:00:00 15 9 Noroeste 15 Noroeste 0 1007.2 0.7 74
2020-03-24 06:00:00 15.5 13 Noroeste 18 Noroeste 0 1006.7 0.1 72
2020-03-24 05:00:00 16.1 14 Noroeste 21 Noroeste 0 1006.5 -0.5 72
2020-03-24 04:00:00 16 17 Noroeste 21 Noroeste 0 1006.5 -0.5 68
2020-03-24 03:00:00 15.8 10 Noroeste 17 Nordeste 0 1006.6 -0.3 69
2020-03-24 02:00:00 16.6 10 Nordeste 17 Nordeste 0 1007 0.1 64
2020-03-24 01:00:00 17.3 11 Nordeste 21 Nordeste 0 1007 0.4 62
2020-03-24 00:00:00 17.1 11 Nordeste 17 Nordeste 0 1006.9 0.9 65
2020-03-23 23:00:00 17.4 8 Noroeste 17 Oeste 0 1006.9 1.9 62
2020-03-23 22:00:00 18.1 14 Oeste 22 Noroeste 0 1006.6 2.2 62
2020-03-23 21:00:00 18.5 13 Oeste 24 Oeste 0 1006 1.9 60
2020-03-23 20:00:00 18.7 12 Sudoeste 18 Sudoeste 0 1005 1.5 59
2020-03-23 19:00:00 19.9 12 Sudoeste 33 Sudoeste 0 1004.4 1.5 56
2020-03-23 18:00:00 20.9 24 Sudoeste 41 Oeste 0 1004.1 1.1 57
2020-03-23 17:00:00 22.6 21 Oeste 33 Oeste 0 1003.5 0.4 48
2020-03-23 16:00:00 21.9 14 Sudoeste 33 Sudoeste 0 1002.9 -0.4 46
2020-03-23 15:00:00 21.7 24 Sudoeste 35 Sudoeste 0 1003 -0.3 49
2020-03-23 14:00:00 21.8 26 Sudoeste 42 Sudoeste 0 1003.1 0 48
2020-03-23 13:00:00 22 31 Sudoeste 48 Sudoeste 0 1003.3 0.3 47
2020-03-23 12:00:00 22.4 36 Oeste 50 Nordeste 0 1003.3 0.7 43
2020-03-23 11:00:00 21.3 28 Este 45 Este 0 1003.1 1 43
2020-03-23 10:00:00 19.9 8 Sudeste 18 Este 0 1003 2 50
2020-03-23 09:00:00 17.6 13 Norte 22 Norte 0 1002.6 1.6 58
2020-03-23 08:00:00 15.5 9 Noroeste 24 Sur 0 1002.1 1.8 69
2020-03-23 07:00:00 14.4 14 Norte 24 Norte 0 1001 0.3 70
2020-03-23 06:00:00 14.7 6 Norte 17 Norte 0 1001 -0.2 66
2020-03-23 05:00:00 14.3 6 Norte 21 Norte 0 1000.3 -1.5 71
2020-03-23 04:00:00 15.1 14 Norte 39 Oeste 0 1000.7 -1.5 70
2020-03-23 03:00:00 16.1 18 Oeste 32 Oeste 0 1001.2 -1.6 59
2020-03-23 02:00:00 16.1 15 Norte 26 Oeste 0 1001.8 -1.4 64
2020-03-23 01:00:00 16 13 Oeste 28 Norte 0 1002.2 -1.6 62
2020-03-23 00:00:00 16 21 Norte 28 Norte 0 1002.8 -0.7 72
2020-03-22 23:00:00 15.6 4 Noroeste 18 Norte 0 1003.2 -0.1 68
2020-03-22 22:00:00 16.7 12 Norte 21 Norte 0 1003.8 0.1 68
2020-03-22 21:00:00 16.9 14 Norte 26 Nordeste 0 1003.5 -0.1 69
2020-03-22 20:00:00 17.3 12 Sur 17 Sur 0 1003.3 0 66
2020-03-22 19:00:00 19 14 Este 30 Este 0 1003.7 0 57
2020-03-22 18:00:00 20 25 Nordeste 35 Este 0 1003.6 -0.9 53
2020-03-22 17:00:00 20.7 12 Este 45 Noroeste 0 1003.3 -2.7 56
2020-03-22 16:00:00 21.5 7 Nordeste 24 Nordeste 0 1003.7 -3.5 51
2020-03-22 15:00:00 20.2 7 Este 28 Sudeste 0 1004.5 -3.4 55
2020-03-22 14:00:00 20.9 16 Sudeste 28 Sur 0 1006 -2.5 56
2020-03-22 13:00:00 20.2 12 Sudeste 26 Este 0 1007.2 -1.5 57
2020-03-22 12:00:00 20.5 15 Este 26 Este 0 1007.9 -0.6 55
2020-03-22 11:00:00 19.9 15 Sudeste 24 Este 0 1008.5 0.1 56
2020-03-22 10:00:00 20 12 Sudeste 21 Sudeste 0 1008.7 0.5 52
2020-03-22 09:00:00 18.1 5 Sudeste 13 Sudeste 0 1008.5 0.3 59
2020-03-22 08:00:00 17.7 9 Sudoeste 18 Sur 0 1008.4 0 61
2020-03-22 07:00:00 15.8 8 Sudoeste 21 Oeste 0 1008.2 -0.6 65
2020-03-22 06:00:00 16.6 13 Oeste 26 Oeste 0 1008.2 -1.2 62
2020-03-22 05:00:00 16.8 16 Oeste 26 Oeste 0 1008.4 -1.7 62
2020-03-22 04:00:00 16.3 11 Oeste 17 Oeste 0 1008.8 -1.7 63
2020-03-22 03:00:00 17.4 10 Sudoeste 22 Oeste 0 1009.4 -1.6 61
2020-03-22 02:00:00 17.5 16 Oeste 26 Oeste 0 1010.1 -1.2 58
2020-03-22 01:00:00 17.6 10 Oeste 22 Noroeste 0 1010.5 -0.9 62
2020-03-22 00:00:00 17.6 12 Sudoeste 22 Sudoeste 0 1011 -0.1 63
2020-03-21 23:00:00 16.8 12 Noroeste 22 Oeste 0 1011.3 0.7 62
2020-03-21 22:00:00 17.3 10 Noroeste 18 Oeste 0 1011.4 0.6 58
2020-03-21 21:00:00 17.8 12 Oeste 18 Oeste 0 1011.1 0.4 55
2020-03-21 20:00:00 17.9 10 Sur 26 Sudeste 0 1010.6 -0.2 57
2020-03-21 19:00:00 18.3 19 Este 28 Este 0 1010.8 -0.1 59
2020-03-21 18:00:00 18.5 22 Este 30 Este 0 1010.7 -0.7 56
2020-03-21 17:00:00 18.9 24 Este 35 Este 0 1010.8 -1.3 55
2020-03-21 16:00:00 18.8 24 Este 37 Este 0 1010.9 -1.9 55
2020-03-21 15:00:00 19.7 28 Este 42 Este 0 1011.4 -2 49
2020-03-21 14:00:00 20.3 32 Este 46 Este 0 1012.1 -1.4 47
2020-03-21 13:00:00 20.6 33 Este 48 Este 0 1012.8 -0.7 48
2020-03-21 12:00:00 20.1 35 Este 48 Este 0 1013.4 0.2 44
2020-03-21 11:00:00 19.9 31 Este 48 Este 0 1013.5 0.9 45
2020-03-21 10:00:00 18.3 34 Este 48 Este 0 1013.5 1.4 56
2020-03-21 09:00:00 18.3 30 Nordeste 42 Nordeste 0 1013.2 1.7 48
2020-03-21 08:00:00 16.8 24 Nordeste 35 Nordeste 0 1012.6 1.3 53
2020-03-21 07:00:00 16.8 22 Nordeste 33 Nordeste 0 1012.1 1.1 57
2020-03-21 06:00:00 16.9 24 Nordeste 39 Nordeste 0 1011.5 0.3 57
2020-03-21 05:00:00 17 26 Nordeste 39 Nordeste 0 1011.3 -0.5 57
2020-03-21 04:00:00 17.3 25 Nordeste 39 Nordeste 0 1011 -1.1 59
2020-03-21 03:00:00 17.4 24 Nordeste 33 Este 0 1011.2 -1.2 63
2020-03-21 02:00:00 17.4 16 Nordeste 26 Nordeste 0 1011.8 -0.9 67
2020-03-21 01:00:00 17 18 Nordeste 28 Nordeste 0 1012.1 -0.8 71
2020-03-21 00:00:00 17.1 21 Nordeste 30 Nordeste 0 1012.4 0 74
2020-03-20 23:00:00 17.4 20 Nordeste 30 Este 0 1012.7 1.1 76
2020-03-20 22:00:00 17.7 17 Nordeste 30 Este 0 1012.9 1.8 73
2020-03-20 21:00:00 17.7 24 Nordeste 33 Nordeste 0 1012.4 1.7 75
2020-03-20 20:00:00 17.7 23 Nordeste 33 Este 0 1011.6 1 76
2020-03-20 19:00:00 18.4 23 Este 42 Este 0 1011.1 0.3 72
2020-03-20 18:00:00 20 27 Este 41 Este 0 1010.7 -0.2 62
2020-03-20 17:00:00 20.6 23 Este 39 Este 0 1010.6 -0.6 62
2020-03-20 16:00:00 21.4 26 Este 41 Este 0 1010.8 -0.9 55
2020-03-20 15:00:00 21.1 27 Este 41 Este 0 1010.9 -1 57
2020-03-20 14:00:00 22.7 30 Este 45 Este 0 1011.2 -0.5 46
2020-03-20 13:00:00 21.7 27 Este 46 Este 0 1011.7 0.4 48
2020-03-20 12:00:00 21.5 15 Sudeste 24 Sudeste 0 1011.9 0.9 57
2020-03-20 11:00:00 21.8 16 Sur 26 Sur 0 1011.7 1.7 57
2020-03-20 10:00:00 21.5 12 Oeste 22 Norte 0 1011.3 1.9 55
2020-03-20 09:00:00 20 7 Noroeste 13 Noroeste 0 1011 2.2 60
2020-03-20 08:00:00 16.3 6 Norte 13 Norte 0 1010 1.5 71
2020-03-20 07:00:00 15.5 11 Norte 15 Norte 0 1009.4 0.9 71
2020-03-20 06:00:00 15.8 13 Noroeste 17 Noroeste 0 1008.8 -0.3 69
2020-03-20 05:00:00 16.1 14 Noroeste 18 Noroeste 0 1008.5 -0.9 71
2020-03-20 04:00:00 15.7 6 Norte -- -- 0 1008.5 -1.5 68
2020-03-20 03:00:00 15.5 7 Norte 24 Norte 0 1009.1 -1.3 71
2020-03-20 02:00:00 15.9 10 Norte 11 Norte 0 1009.4 -1.2 69
2020-03-20 01:00:00 16.4 8 Norte 21 Noroeste 0 1010 -0.5 70
2020-03-20 00:00:00 17.1 8 Noroeste 13 Noroeste 0 1010.4 0 67
2020-03-19 23:00:00 18.2 9 Noroeste 24 Noroeste 0 1010.6 1.1 67
2020-03-19 22:00:00 18.5 13 Oeste 24 Noroeste 0 1010.5 1.3 67
2020-03-19 21:00:00 18.9 8 Sudeste 13 Sudeste 0 1010.4 1.5 62
2020-03-19 20:00:00 19.9 8 Nordeste 28 Este 0 1009.5 0.9 62
2020-03-19 19:00:00 20.1 14 Este 42 Este 0 1009.2 0.5 64
2020-03-19 18:00:00 20.9 29 Este 46 Este 0 1008.9 0.1 67
2020-03-19 17:00:00 20.7 22 Sudeste 42 Este 0 1008.6 -0.4 68
2020-03-19 16:00:00 21.5 30 Este 41 Este 0 1008.7 -0.8 65
2020-03-19 15:00:00 23.5 11 Sudeste 26 Sudoeste 0 1008.8 -1.1 47
2020-03-19 14:00:00 22.2 13 Sudoeste 22 Sudoeste 0 1009 -0.6 50
2020-03-19 13:00:00 22.6 15 Sudoeste 26 Sur 0 1009.5 0.3 45
2020-03-19 12:00:00 22.5 16 Sudoeste 24 Sudoeste 0 1009.9 0.9 47
2020-03-19 11:00:00 21.6 19 Sudoeste 26 Sudoeste 0 1009.6 1.2 49
2020-03-19 10:00:00 21.3 17 Sudoeste 24 Sudoeste 0 1009.2 1.2 45
2020-03-19 09:00:00 20.1 12 Oeste 21 Noroeste 0 1009 1.1 48
2020-03-19 08:00:00 15.4 13 Noroeste 15 Noroeste 0 1008.4 0.7 62
2020-03-19 07:00:00 14.4 10 Nordeste 15 Norte 0 1008 0.1 61
2020-03-19 06:00:00 14 12 Norte 13 Norte 0 1007.9 0 66
2020-03-19 05:00:00 14.2 9 Norte 15 Norte 0 1007.7 -0.9 69
2020-03-19 04:00:00 15.4 13 Noroeste 18 Noroeste 0 1007.9 -1 68
2020-03-19 03:00:00 15.5 16 Noroeste 21 Noroeste 0 1007.9 -1.1 68
2020-03-19 02:00:00 16.2 14 Noroeste 18 Noroeste 0 1008.6 -0.9 66
2020-03-19 01:00:00 15.9 13 Noroeste 17 Noroeste 0 1008.9 -0.5 67
2020-03-19 00:00:00 16.8 9 Oeste 17 Norte 0 1009 -0.2 65
2020-03-18 23:00:00 16.6 13 Norte 15 Norte 0 1009.5 0.9 61
2020-03-18 22:00:00 17.3 11 Nordeste 13 Nordeste 0 1009.4 1.2 62
2020-03-18 21:00:00 17.9 8 Oeste 22 Oeste 0 1009.2 1.1 61
2020-03-18 20:00:00 18.4 15 Oeste 28 Oeste 0 1008.6 0.3 59
2020-03-18 19:00:00 19.5 22 Oeste 28 Oeste 0 1008.2 -0.4 56
2020-03-18 18:00:00 20.8 17 Sudoeste 26 Sur 0 1008.1 -0.7 52
2020-03-18 17:00:00 21 15 Sudoeste 28 Sudoeste 0 1008.3 -0.8 53
2020-03-18 16:00:00 20.8 17 Sudoeste 26 Sur 0 1008.6 -1.2 52
2020-03-18 15:00:00 20.2 18 Sudoeste 32 Sudoeste 0 1008.8 -1.7 54
2020-03-18 14:00:00 20.7 17 Sudoeste 30 Sudoeste 0 1009.1 -1.7 52
2020-03-18 13:00:00 21.6 13 Sur 26 Sudeste 0 1009.8 -1.1 44
2020-03-18 12:00:00 21 10 Sudeste 24 Sudeste 0 1010.5 0.1 45
2020-03-18 11:00:00 20.2 12 Este 24 Este -- 1010.8 0.8 51
2020-03-18 10:00:00 18.8 6 Este 13 Este -- 1010.9 1.4 60
2020-03-18 09:00:00 18.1 10 Sudeste 17 Este 0 1010.4 1.1 61
2020-03-18 08:00:00 15.1 4 Noroeste 9 Noroeste 0 1010 0.9 71
2020-03-18 07:00:00 14.9 4 Noroeste 13 Norte 0 1009.5 0.3 68
2020-03-18 06:00:00 16.1 10 Norte 13 Norte 0 1009.3 -0.3 65
2020-03-18 05:00:00 16 6 Norte 11 Nordeste 0 1009.1 -1 65
2020-03-18 04:00:00 15.4 5 Norte 13 Norte 0 1009.2 -1.2 67
2020-03-18 03:00:00 14.3 10 Norte 15 Noroeste 0 1009.6 -1.3 69
2020-03-18 02:00:00 15.1 8 Norte 15 Norte 0 1010.1 -1.3 67
2020-03-18 01:00:00 15.2 13 Nordeste 17 Nordeste 0 1010.4 -1 69
2020-03-18 00:00:00 15.8 5 Nordeste 17 Nordeste 0 1010.9 -0.4 67
2020-03-17 23:00:00 15.9 11 Norte 30 Norte 0 1011.4 0.8 67
2020-03-17 22:00:00 16.6 14 Nordeste 35 Este 0 1011.4 0.9 67
2020-03-17 21:00:00 17.1 23 Nordeste 41 Nordeste 0 1011.3 1 65
2020-03-17 20:00:00 16.8 33 Este 50 Este 0 1010.6 0.3 68
2020-03-17 19:00:00 17.7 33 Este 45 Este 0 1010.5 0.3 67
2020-03-17 18:00:00 18.5 30 Este 48 Este 0 1010.3 -0.1 61
2020-03-17 17:00:00 18.7 36 Nordeste 48 Este 0 1010.3 -0.3 64
2020-03-17 16:00:00 20.1 39 Nordeste 58 Nordeste 0 1010.2 -1 54
2020-03-17 15:00:00 20.1 40 Este 61 Este 0 1010.4 -1.4 56
2020-03-17 14:00:00 21 45 Este 65 Nordeste 0 1010.6 -1.8 51
2020-03-17 13:00:00 20.6 45 Este 68 Este 0 1011.2 -1.2 53
2020-03-17 12:00:00 20.6 40 Este 55 Este 0 1011.8 -0.4 50
2020-03-17 11:00:00 20.6 36 Este 59 Este 0 1012.4 0.7 43
2020-03-17 10:00:00 19.5 38 Nordeste 58 Nordeste 0 1012.4 1.3 50
2020-03-17 09:00:00 18.2 34 Este 50 Este 0 1012.2 1.4 56
2020-03-17 08:00:00 15.9 32 Nordeste 48 Nordeste 0 1011.7 1.3 64
2020-03-17 07:00:00 15.4 30 Nordeste 46 Nordeste 0 1011.1 0.7 65
2020-03-17 06:00:00 15.3 26 Nordeste 46 Nordeste 0 1010.8 0.1 69
2020-03-17 05:00:00 15.7 33 Nordeste 48 Nordeste 0 1010.4 -0.6 63
2020-03-17 04:00:00 15.5 32 Nordeste 55 Este 0 1010.4 -0.8 66
2020-03-17 03:00:00 16.1 33 Nordeste 52 Nordeste 0 1010.7 -0.7 63
2020-03-17 02:00:00 15.9 38 Nordeste 54 Nordeste 0 1011 -0.6 70
2020-03-17 01:00:00 17.1 37 Nordeste 54 Nordeste 0 1011.2 -0.4 64
2020-03-17 00:00:00 17.1 37 Nordeste 50 Este 0 1011.4 0.1 65
2020-03-16 23:00:00 17.8 30 Nordeste 48 Nordeste 0 1011.6 1 64
2020-03-16 22:00:00 17.4 27 Nordeste 45 Nordeste 0 1011.6 1.2 70
2020-03-16 21:00:00 17.8 34 Nordeste 46 Nordeste 0 1011.3 0.8 70
2020-03-16 20:00:00 17.9 30 Nordeste 50 Nordeste 0 1010.6 0.3 70
2020-03-16 19:00:00 18 32 Este 54 Nordeste 0 1010.4 0.3 75
2020-03-16 18:00:00 18.9 33 Este 55 Este 0 1010.5 0 69
2020-03-16 17:00:00 19.6 39 Este 61 Este 0 1010.3 -0.6 64
2020-03-16 16:00:00 22 35 Este 55 Este 0 1010.1 -1.4 54
2020-03-16 15:00:00 21.1 40 Este 59 Este 0 1010.5 -1.3 60
2020-03-16 14:00:00 22.3 39 Este 68 Este 0 1010.9 -1.1 51
2020-03-16 13:00:00 22.4 44 Este 65 Este 0 1011.5 -0.7 46
2020-03-16 12:00:00 22.6 48 Este 76 Nordeste 0 1011.8 -0.1 39
2020-03-16 11:00:00 21.5 46 Este 65 Este 0 1012 0.7 45
2020-03-16 10:00:00 21.3 40 Este 58 Este 0 1012.2 1.4 42
2020-03-16 09:00:00 19.9 33 Nordeste 46 Nordeste 0 1011.9 1.6 48
2020-03-16 08:00:00 16.9 12 Nordeste 35 Nordeste 0 1011.3 1 60
2020-03-16 07:00:00 17.1 26 Nordeste 39 Nordeste 0 1010.8 0.4 60
2020-03-16 06:00:00 16.8 20 Nordeste 32 Nordeste 0 1010.3 -0.8 66
2020-03-16 05:00:00 16.9 21 Nordeste 30 Nordeste 0 1010.3 -1.1 60
2020-03-16 04:00:00 17.2 13 Nordeste 41 Nordeste 0 1010.4 -1.3 61
2020-03-16 03:00:00 16.9 18 Nordeste 30 Nordeste 0 1011.1 -0.6 64
2020-03-16 02:00:00 16.4 8 Nordeste 24 Nordeste 0 1011.4 0 64
2020-03-16 01:00:00 15.1 10 Norte 18 Nordeste 0 1011.7 0.8 65
2020-03-16 00:00:00 16.2 14 Norte 33 Norte 0 1011.7 0.9 62
2020-03-15 23:00:00 16.2 11 Norte 32 Noroeste 0 1011.4 1.2 63
2020-03-15 22:00:00 17.6 8 Norte 32 Este 0 1010.9 1.3 62
2020-03-15 21:00:00 18.4 14 Nordeste 28 Nordeste 0 1010.8 1.7 59
2020-03-15 20:00:00 18.4 16 Nordeste 30 Nordeste 0 1010.2 1 58
2020-03-15 19:00:00 19.4 20 Nordeste 42 Nordeste 0 1009.6 -0.4 56
2020-03-15 18:00:00 20.8 27 Este 42 Nordeste 0 1009.1 -1.1 50
2020-03-15 17:00:00 20 23 Este 37 Este 0 1009.2 -1.3 53
2020-03-15 16:00:00 19.7 13 Este 26 Este 0 1010 -1 53
2020-03-15 15:00:00 18.8 19 Este 37 Este 0 1010.2 -1.2 64
2020-03-15 14:00:00 19.3 24 Este 35 Este 0 1010.5 -0.5 58
2020-03-15 13:00:00 19.6 26 Este 41 Este 0 1011 0 55
2020-03-15 12:00:00 19.3 33 Este 50 Este 0 1011.4 0.7 60
2020-03-15 11:00:00 20.6 31 Este 45 Este 0 1011 0.8 52
2020-03-15 10:00:00 20.2 17 Este 33 Este 0 1011 1.4 51
2020-03-15 09:00:00 17.9 12 Nordeste 18 Nordeste 0 1010.7 1.5 55
2020-03-15 08:00:00 15.8 13 Norte 22 Norte 0 1010.2 1.3 63
2020-03-15 07:00:00 15.3 17 Norte 21 Norte 0 1009.6 0.6 68
2020-03-15 06:00:00 14.6 14 Nordeste 24 Nordeste 0 1009.2 -0.1 71
2020-03-15 05:00:00 15.3 8 Nordeste 17 Nordeste 0 1008.9 -0.7 71
2020-03-15 04:00:00 16.2 10 Nordeste 33 Este 0 1009 -1 69
2020-03-15 03:00:00 17.4 10 Este 22 Norte 0 1009.3 -0.9 61
2020-03-15 02:00:00 17.3 8 Nordeste 11 Sudeste 0 1009.6 -0.6 64
2020-03-15 01:00:00 17.9 8 Noroeste 21 Noroeste 0 1010 -0.3 62
2020-03-15 00:00:00 18.2 0 Calma 26 Este 0 1010.2 0 60
2020-03-14 23:00:00 18.4 17 Este 35 Este 0 1010.2 0.4 62
2020-03-14 22:00:00 18.4 27 Este 45 Este 0 1010.3 0.9 63
2020-03-14 21:00:00 18.3 23 Este 35 Este 0 1010.2 0.7 64
2020-03-14 20:00:00 18.4 23 Nordeste 33 Este 0 1009.8 0.6 61
2020-03-14 19:00:00 18.8 28 Este 39 Este 0 1009.4 0 60
2020-03-14 18:00:00 19.3 27 Este 39 Este 0 1009.5 -0.2 59
2020-03-14 17:00:00 19.9 31 Nordeste 41 Norte 0 1009.2 -1.1 59
2020-03-14 16:00:00 20.1 28 Nordeste 42 Este 0 1009.4 -1.2 58
2020-03-14 15:00:00 20.6 30 Este 42 Este 0 1009.7 -1.4 57
2020-03-14 14:00:00 21.1 33 Este 54 Este 0 1010.3 -0.7 58
2020-03-14 13:00:00 22.3 37 Este 54 Este 0 1010.6 0.1 54
2020-03-14 12:00:00 21.9 39 Este 55 Nordeste 0 1011.1 0.8 53
2020-03-14 11:00:00 21.3 39 Este 54 Nordeste 0 1011 1.2 54
2020-03-14 10:00:00 20.6 35 Este 50 Este 0 1010.5 1 52
2020-03-14 09:00:00 19.2 35 Nordeste 54 Nordeste 0 1010.3 0.9 60
2020-03-14 08:00:00 17.6 28 Nordeste 39 Nordeste 0 1009.8 0.4 72
2020-03-14 07:00:00 17.2 26 Nordeste 42 Nordeste 0 1009.5 -0.3 72
2020-03-14 06:00:00 17.1 27 Nordeste 41 Nordeste 0 1009.4 -0.9 67
2020-03-14 05:00:00 17.3 27 Nordeste 39 Nordeste 0 1009.4 -1.1 66
2020-03-14 04:00:00 17.3 24 Nordeste 37 Nordeste 0 1009.8 -1 70
2020-03-14 03:00:00 17.4 26 Nordeste 37 Nordeste 0 1010.3 -0.8 66
2020-03-14 02:00:00 17.6 27 Nordeste 46 Nordeste 0 1010.5 -0.7 70
2020-03-14 01:00:00 17.8 32 Nordeste 50 Nordeste 0 1010.8 -0.2 70
2020-03-14 00:00:00 18 34 Nordeste 52 Nordeste 0 1011.1 0.5 73
2020-03-13 23:00:00 18.2 33 Nordeste 48 Nordeste 0 1011.2 1 74
2020-03-13 22:00:00 18.2 33 Nordeste 52 Este 0 1011 1 76
2020-03-13 21:00:00 18.4 34 Nordeste 50 Nordeste 0 1010.6 1.2 74
2020-03-13 20:00:00 18.6 36 Nordeste 50 Este 0 1010.2 0.6 72
2020-03-13 19:00:00 19.1 32 Nordeste 54 Este 0 1010 -0.1 68
2020-03-13 18:00:00 20.6 39 Nordeste 54 Nordeste 0 1009.4 -0.7 63
2020-03-13 17:00:00 21.2 36 Este 50 Este 0 1009.6 -0.8 62
2020-03-13 16:00:00 21.6 35 Este 48 Este 0 1010.1 -1 61
2020-03-13 15:00:00 21.7 31 Este 45 Este 0 1010.1 -1.6 60
2020-03-13 14:00:00 22.9 31 Nordeste 54 Nordeste 0 1010.4 -1.2 56
2020-03-13 13:00:00 23.6 34 Nordeste 52 Nordeste 0 1011.1 0.3 52
2020-03-13 12:00:00 22.8 34 Este 52 Este 0 1011.7 0.9 56
2020-03-13 11:00:00 21.5 34 Nordeste 59 Nordeste 0 1011.6 1.3 59
2020-03-13 10:00:00 20.9 40 Nordeste 58 Nordeste 0 1010.8 1.5 61
2020-03-13 09:00:00 19.1 34 Nordeste 50 Nordeste 0 1010.8 1.8 67
2020-03-13 08:00:00 17.5 35 Nordeste 54 Nordeste 0 1010.3 1.1 76
2020-03-13 07:00:00 17 36 Nordeste 55 Nordeste 0 1009.3 0.6 77
2020-03-13 06:00:00 17.1 37 Nordeste 54 Nordeste 0 1009 -0.6 79
2020-03-13 05:00:00 17.2 36 Nordeste 58 Este 0 1009.2 -0.8 79
2020-03-13 04:00:00 17.3 36 Nordeste 50 Este 0 1008.7 -1.3 82
2020-03-13 03:00:00 17.3 27 Nordeste 41 Nordeste 0 1009.6 -0.9 83
2020-03-13 02:00:00 17.4 33 Nordeste 46 Nordeste 0 1010 -0.7 83
2020-03-13 01:00:00 17.6 30 Nordeste 41 Nordeste 0 1010 -0.3 83
2020-03-13 00:00:00 17.7 21 Nordeste 32 Nordeste 0 1010.5 0.5 82
2020-03-12 23:00:00 18.1 19 Nordeste 32 Nordeste 0 1010.7 1.1 83
2020-03-12 22:00:00 18.1 22 Nordeste 32 Nordeste 0 1010.3 1.2 84
2020-03-12 21:00:00 18.5 18 Nordeste 32 Nordeste 0 1010 1.2 82
2020-03-12 20:00:00 19.1 23 Nordeste 33 Nordeste 0 1009.6 1.1 80
2020-03-12 19:00:00 20.3 24 Este 37 Nordeste 0 1009.1 0.7 76
2020-03-12 18:00:00 21.9 27 Este 37 Este 0 1008.8 0 71
2020-03-12 17:00:00 22.9 26 Este 35 Este 0 1008.5 -0.6 67
2020-03-12 16:00:00 24.4 27 Este 41 Este 0 1008.4 -1.4 61
2020-03-12 15:00:00 24.6 29 Este 41 Este 0 1008.8 -1.2 61
2020-03-12 14:00:00 25.5 32 Nordeste 48 Este 0 1009.1 -1.1 55
2020-03-12 13:00:00 23.7 35 Este 45 Este 0 1009.8 -0.3 60
2020-03-12 12:00:00 25.7 24 Este 33 Este 0 1010 0.4 50
2020-03-12 11:00:00 25 17 Este 30 Este 0 1010.2 1.2 50
2020-03-12 10:00:00 21.8 20 Este 32 Este 0 1010.1 1.8 69
2020-03-12 09:00:00 20.6 13 Este 22 Este 0 1009.6 1.5 59
2020-03-12 08:00:00 16 10 Oeste 13 Oeste 0 1009 1.5 79
2020-03-12 07:00:00 14.7 7 Oeste 13 Sudoeste 0 1008.3 0.3 84
2020-03-12 06:00:00 15.5 4 Nordeste 32 Nordeste 0 1008.1 0.2 75
2020-03-12 05:00:00 16.8 24 Nordeste 33 Nordeste 0 1007.5 -0.8 84
2020-03-12 04:00:00 17.2 19 Nordeste 45 Nordeste 0 1008 -1.2 83
2020-03-12 03:00:00 17 33 Este 42 Nordeste 0 1007.9 -1.6 90
2020-03-12 02:00:00 16.5 22 Este 28 Este 0 1008.3 -1.5 86
2020-03-12 01:00:00 15 8 Este 13 Este 0 1009.2 -0.7 71
2020-03-12 00:00:00 15.5 2 Norte 17 Nordeste 0 1009.5 0 59
2020-03-11 23:00:00 16.5 9 Nordeste 17 Este 0 1009.8 1.1 84
2020-03-11 22:00:00 16.9 12 Nordeste 15 Nordeste 0 1009.9 1.5 83
2020-03-11 21:00:00 17.9 7 Nordeste 15 Nordeste 0 1009.5 1.2 84
2020-03-11 20:00:00 19.1 9 Este 15 Este 0 1008.7 0.7 81
2020-03-11 19:00:00 20.9 10 Este 22 Este 0 1008.4 0.2 75
2020-03-11 18:00:00 22.7 20 Este 26 Este 0 1008.3 -0.4 68
2020-03-11 17:00:00 24.8 20 Este 32 Este 0 1008 -1.2 60
2020-03-11 16:00:00 23.8 21 Este 32 Este 0 1008.2 -1.4 61
2020-03-11 15:00:00 24.4 23 Este 32 Este 0 1008.7 -1.5 59
2020-03-11 14:00:00 23.8 25 Este 35 Este 0 1009.2 -1.1 61
2020-03-11 13:00:00 24 30 Este 37 Este 0 1009.6 -0.6 58
2020-03-11 12:00:00 21.3 26 Este 35 Este 0 1010.2 0.4 68
2020-03-11 11:00:00 22.3 23 Este 30 Este 0 1010.3 1.2 63
2020-03-11 10:00:00 21.8 7 Este 21 Nordeste 0 1010.2 1.1 57
2020-03-11 09:00:00 19.4 20 Nordeste 33 Nordeste 0 1009.8 0.8 67
2020-03-11 08:00:00 16.8 24 Nordeste 33 Nordeste 0 1009.1 0.4 80
2020-03-11 07:00:00 16.7 20 Nordeste 35 Este 0 1009.1 0 84
2020-03-11 06:00:00 16.4 24 Nordeste 32 Nordeste 0 1009 -0.2 85
2020-03-11 05:00:00 15.4 14 Nordeste 21 Nordeste 0 1008.7 -1.1 79
2020-03-11 04:00:00 15.7 13 Nordeste 24 Nordeste 0 1009.1 -1.7 77
2020-03-11 03:00:00 14.8 10 Norte 21 Nordeste 0 1009.2 -1.9 70
2020-03-11 02:00:00 15.5 12 Nordeste 30 Nordeste 0 1009.8 -1.5 84
2020-03-11 01:00:00 17 22 Nordeste 28 Nordeste 0 1010.8 -0.2 85
2020-03-11 00:00:00 16.9 18 Nordeste 26 Nordeste 0 1011.1 0.2 86
2020-03-10 23:00:00 16.8 12 Nordeste 33 Norte 0 1011.3 0.8 81
2020-03-10 22:00:00 17.8 13 Nordeste 30 Nordeste 0 1011 1 82
2020-03-10 21:00:00 18.4 17 Este 26 Nordeste 0 1010.9 0.7 80
2020-03-10 20:00:00 19.1 15 Este 24 Nordeste 0 1010.5 0.5 77
2020-03-10 19:00:00 20.5 17 Nordeste 28 Nordeste 0 1010 -0.3 70
2020-03-10 18:00:00 22.3 20 Este 35 Este 0 1010.2 -1 64
2020-03-10 17:00:00 22.6 26 Este 37 Este 0 1010 -1.7 64
2020-03-10 16:00:00 24.4 26 Este 45 Este 0 1010.3 -1.9 57
2020-03-10 15:00:00 23.1 33 Este 48 Este 0 1011.2 -1.6 62
2020-03-10 14:00:00 22.5 36 Este 48 Este 0 1011.7 -1.5 65
2020-03-10 13:00:00 22.7 32 Este 46 Este 0 1012.2 -0.4 64
2020-03-10 12:00:00 24.3 23 Este 30 Este 0 1012.8 0.8 55
2020-03-10 11:00:00 23.3 18 Sudoeste 33 Nordeste 0 1013.2 1.9 57
2020-03-10 10:00:00 24.9 25 Nordeste 33 Nordeste 0 1012.6 1.7 36
2020-03-10 09:00:00 20.8 25 Este 32 Este 0 1012 1.4 56
2020-03-10 08:00:00 18.4 27 Nordeste 35 Este 0 1011.3 0.7 53
2020-03-10 07:00:00 20.5 30 Nordeste 45 Nordeste 0 1010.9 0.3 27
2020-03-10 06:00:00 18.3 30 Este 42 Nordeste 0 1010.6 -0.5 48
2020-03-10 05:00:00 17.6 30 Nordeste 42 Nordeste 0 1010.6 -1.1 68
2020-03-10 04:00:00 18.8 32 Nordeste 42 Nordeste 0 1010.6 -1.6 39
2020-03-10 03:00:00 19.4 33 Nordeste 48 Nordeste 0 1011.1 -1.3 35
2020-03-10 02:00:00 19.5 33 Nordeste 42 Nordeste 0 1011.7 -1.1 37
2020-03-10 01:00:00 19.3 32 Nordeste 45 Nordeste 0 1012.2 -0.7 42
2020-03-10 00:00:00 17.7 31 Nordeste 46 Nordeste 0 1012.4 -0.3 79
2020-03-09 23:00:00 17.9 30 Nordeste 46 Nordeste 0 1012.8 0.4 79
2020-03-09 22:00:00 18.2 35 Nordeste 42 Nordeste 0 1012.9 0.4 82
2020-03-09 21:00:00 18.6 28 Nordeste 46 Nordeste 0 1012.7 0.3 81
2020-03-09 20:00:00 19 37 Nordeste 50 Nordeste 0 1012.4 -0.1 82
2020-03-09 19:00:00 20.2 30 Este 42 Este 0 1012.5 -0.1 76
2020-03-09 18:00:00 22.1 33 Este 42 Este 0 1012.4 -0.8 67
2020-03-09 17:00:00 23.2 28 Este 41 Este 0 1012.5 -1.2 64
2020-03-09 16:00:00 24.6 31 Este 45 Este 0 1012.6 -1.9 57
2020-03-09 15:00:00 24.5 33 Este 41 Este 0 1013.2 -1.7 59
2020-03-09 14:00:00 26.2 28 Este 39 Este 0 1013.7 -1.3 50
2020-03-09 13:00:00 27.2 27 Este 41 Este 0 1014.5 -0.3 42
2020-03-09 12:00:00 25.9 26 Este 39 Este 0 1014.9 0.9 48
2020-03-09 11:00:00 25.6 31 Este 46 Este 0 1015 1.8 43
2020-03-09 10:00:00 24.6 32 Nordeste 45 Nordeste 0 1014.8 2.1 36
2020-03-09 09:00:00 21.5 30 Nordeste 41 Nordeste 0 1014 1.6 45
2020-03-09 08:00:00 18.9 31 Nordeste 45 Nordeste 0 1013.2 2 46
2020-03-09 07:00:00 18.9 38 Nordeste 48 Nordeste 0 1012.7 1.4 49
2020-03-09 06:00:00 17.6 29 Este 45 Nordeste 0 1012.4 0.7 69
2020-03-09 05:00:00 19.1 36 Nordeste 58 Nordeste 0 1011.2 -1 46
2020-03-09 04:00:00 17.6 42 Nordeste 63 Nordeste 0 1011.3 -1.3 77
2020-03-09 03:00:00 17.8 50 Nordeste 63 Nordeste 0 1011.7 -1.1 81
2020-03-09 02:00:00 17.8 45 Nordeste 65 Nordeste 0 1012.2 -0.6 82
2020-03-09 01:00:00 18 47 Nordeste 68 Nordeste 0 1012.6 -0.3 83
2020-03-09 00:00:00 18.1 42 Nordeste 55 Nordeste 0 1012.8 0.3 85
2020-03-08 23:00:00 18.1 38 Nordeste 52 Nordeste 0 1012.8 1.5 85
2020-03-08 22:00:00 18.3 17 Nordeste 30 Este 0 1012.9 2.4 83
2020-03-08 21:00:00 18.5 22 Nordeste 48 Nordeste 0 1012.5 2.6 82
2020-03-08 20:00:00 19 31 Nordeste 45 Nordeste 0 1011.3 1.3 79
2020-03-08 19:00:00 20.1 35 Nordeste 46 Nordeste 0 1010.5 0.5 75
2020-03-08 18:00:00 22.2 38 Nordeste 50 Nordeste 0 1009.9 -0.5 65
2020-03-08 17:00:00 23.7 39 Nordeste 54 Nordeste 0 1010 -1 58
2020-03-08 16:00:00 24.3 42 Nordeste 54 Nordeste 0 1010 -1.8 56
2020-03-08 15:00:00 25.8 41 Este 58 Nordeste 0 1010.4 -1.9 51
2020-03-08 14:00:00 25.6 40 Nordeste 54 Nordeste 0 1011 -1.1 50
2020-03-08 13:00:00 24.7 39 Nordeste 54 Este 0 1011.8 0.3 53
2020-03-08 12:00:00 23.7 35 Este 50 Nordeste 0 1012.3 0.9 59
2020-03-08 11:00:00 24.1 35 Este 54 Nordeste 0 1012.1 1.5 51
2020-03-08 10:00:00 22 32 Nordeste 42 Este 0 1011.5 1.6 54
2020-03-08 09:00:00 19.2 11 Nordeste 26 Nordeste 0 1011.4 2.4 63
2020-03-08 08:00:00 15.7 12 Nordeste 22 Nordeste 0 1010.6 1.8 75
2020-03-08 07:00:00 15.8 12 Norte 37 Nordeste 0 1009.9 0.9 73
2020-03-08 06:00:00 16.9 18 Norte 50 Nordeste 0 1009 -0.6 71
2020-03-08 05:00:00 17 24 Nordeste 41 Nordeste 0 1008.8 -0.8 74
2020-03-08 04:00:00 16.8 20 Nordeste 32 Nordeste 0 1009 -0.8 73
2020-03-08 03:00:00 17 26 Nordeste 41 Nordeste 0 1009.6 -0.5 67
2020-03-08 02:00:00 17.1 23 Nordeste 39 Nordeste 0 1009.6 -0.9 69
2020-03-08 01:00:00 17.4 23 Nordeste 41 Nordeste 0 1009.8 -0.1 72
2020-03-08 00:00:00 17.6 27 Nordeste 45 Nordeste 0 1010.1 0.2 71
2020-03-07 23:00:00 17.8 27 Nordeste 52 Este 0 1010.5 0.7 71
2020-03-07 22:00:00 17.8 40 Nordeste 61 Nordeste 0 1009.9 0.8 70
2020-03-07 21:00:00 17.9 33 Nordeste 46 Nordeste 0 1009.9 1.3 69
2020-03-07 20:00:00 18.3 26 Nordeste 45 Nordeste 0 1009.8 1.3 68
2020-03-07 19:00:00 18.9 34 Nordeste 59 Nordeste 0 1009.1 0.5 66
2020-03-07 18:00:00 20.4 43 Nordeste 55 Nordeste 0 1008.6 -0.3 58
2020-03-07 17:00:00 21.7 43 Nordeste 58 Nordeste 0 1008.5 -1.6 53
2020-03-07 16:00:00 22.6 32 Nordeste 58 Este 0 1008.6 -2.3 51
2020-03-07 15:00:00 22.9 38 Este 58 Nordeste 0 1008.9 -2.9 49
2020-03-07 14:00:00 23.6 31 Nordeste 52 Nordeste 0 1010.1 -2.2 48
2020-03-07 13:00:00 23.2 38 Nordeste 55 Nordeste 0 1010.9 -1.8 47
2020-03-07 12:00:00 22.3 40 Nordeste 58 Este 0 1011.8 -0.7 48
2020-03-07 11:00:00 21.8 37 Nordeste 54 Este 0 1012.3 0.4 49
2020-03-07 10:00:00 20.5 33 Nordeste 50 Nordeste 0 1012.7 1.1 54
2020-03-07 09:00:00 19.1 27 Nordeste 39 Nordeste 0 1012.5 1.5 58
2020-03-07 08:00:00 16.2 15 Norte 28 Norte 0 1011.9 1 63
2020-03-07 07:00:00 16.4 16 Norte 30 Norte 0 1011.6 0.8 62
2020-03-07 06:00:00 16.2 18 Norte 42 Nordeste 0 1011 -0.4 64
2020-03-07 05:00:00 16.6 23 Nordeste 46 Nordeste 0 1010.9 -- 64
2020-03-07 04:00:00 16.9 31 Nordeste 54 Nordeste 0 1010.8 -1.7 62
2020-03-07 03:00:00 17 31 Nordeste 54 Nordeste 0 1011.4 -0.9 63
2020-03-07 02:00:00 -- -- -- -- -- -- -- -- --
2020-03-07 01:00:00 16.9 32 Nordeste 65 Nordeste 0 1012.5 -0.7 63
2020-03-07 00:00:00 17.1 41 Nordeste 68 Nordeste 0 1012.3 -0.7 62
2020-03-06 23:00:00 17.1 34 Nordeste 59 Nordeste 0 1012.9 0.5 60
2020-03-06 22:00:00 17.4 39 Nordeste 55 Nordeste 0 1013.2 1 60
2020-03-06 21:00:00 17.6 41 Nordeste 59 Nordeste 0 1013 0.7 59
2020-03-06 20:00:00 17.7 37 Nordeste 65 Nordeste 0 1012.4 -0.2 61
2020-03-06 19:00:00 18.4 45 Nordeste 68 Nordeste 0 1012.2 -0.6 61
2020-03-06 18:00:00 19.9 50 Nordeste 71 Este 0 1012.3 -0.3 54
2020-03-06 17:00:00 20.8 52 Nordeste 78 Este 0 1012.6 -0.9 50
2020-03-06 16:00:00 21.6 54 Nordeste 84 Nordeste 0 1012.8 -1.3 49
2020-03-06 15:00:00 22.1 58 Nordeste 84 Este 0 1012.6 -2.5 47
2020-03-06 14:00:00 22.3 55 Nordeste 85 Nordeste 0 1013.5 -1.7 45
2020-03-06 13:00:00 21.6 58 Nordeste 84 Nordeste 0 1014.1 -0.3 47
2020-03-06 12:00:00 21 62 Nordeste 82 Nordeste 0 1015.1 0.9 51
2020-03-06 11:00:00 20.7 54 Nordeste 85 Este 0 1015.2 1.5 50
2020-03-06 10:00:00 19.9 59 Nordeste 87 Nordeste 0 1014.4 2 54
2020-03-06 09:00:00 19 46 Nordeste 72 Nordeste 0 1014.2 1.8 59
2020-03-06 08:00:00 17.4 37 Nordeste 65 Nordeste 0 1013.7 1.4 71
2020-03-06 07:00:00 17.2 46 Nordeste 71 Nordeste 0 1012.4 -0.6 73
2020-03-06 06:00:00 17.3 45 Nordeste 68 Nordeste 0 1012.4 -1.4 82
2020-03-06 05:00:00 17.8 44 Nordeste 61 Nordeste 0 1012.3 -1.5 79
2020-03-06 04:00:00 18.1 37 Nordeste 61 Nordeste 0 1013 -1.2 81
2020-03-06 03:00:00 18.4 46 Nordeste 59 Nordeste 0 1013.8 -0.8 82
2020-03-06 02:00:00 18.9 33 Nordeste 55 Nordeste 0 1013.8 -1 70
2020-03-06 01:00:00 18.7 36 Nordeste 68 Este 0 1014.2 -0.8 74
2020-03-06 00:00:00 18.9 44 Nordeste 59 Nordeste 0 1014.6 0.1 67
2020-03-05 23:00:00 18.6 42 Nordeste 67 Nordeste 0 1014.8 0.6 71
2020-03-05 22:00:00 18.5 38 Nordeste 55 Nordeste 0 1015 1.4 70
2020-03-05 21:00:00 18.4 36 Nordeste 54 Nordeste 0 1014.5 1.3 70
2020-03-05 20:00:00 18.6 35 Nordeste 54 Nordeste 0 1014.2 1.3 73
2020-03-05 19:00:00 19.2 37 Nordeste 59 Nordeste 0 1013.6 0.9 67
2020-03-05 18:00:00 20.9 40 Nordeste 59 Nordeste 0 1013.2 0.3 61
2020-03-05 17:00:00 22.1 43 Nordeste 59 Nordeste 0 1012.9 -0.5 59
2020-03-05 16:00:00 22.9 41 Nordeste 63 Nordeste 0 1012.7 -1.3 55
2020-03-05 15:00:00 22.9 48 Nordeste 63 Este 0 1012.9 -1.7 58
2020-03-05 14:00:00 22.9 46 Este 63 Nordeste 0 1013.4 -0.6 59
2020-03-05 13:00:00 23.4 42 Este 61 Este 0 1014 -0.4 58
2020-03-05 12:00:00 23.1 39 Nordeste 63 Este 0 1014.6 0.5 59
2020-03-05 11:00:00 22.1 44 Nordeste 63 Este 0 1014 0.2 62
2020-03-05 10:00:00 21.1 36 Este 48 Este 0 1014.4 1.5 67
2020-03-05 09:00:00 19.3 28 Nordeste 46 Este 0 1014.1 2 76
2020-03-05 08:00:00 18.3 19 Nordeste 33 Nordeste 0 1013.8 1.6 79
2020-03-05 07:00:00 17.9 24 Nordeste 42 Nordeste 0 1012.9 0.4 82
2020-03-05 06:00:00 17.7 32 Nordeste 46 Este 0 1012.1 -0.6 83
2020-03-05 05:00:00 17.6 23 Nordeste 33 Nordeste 0 1012.2 -1 83
2020-03-05 04:00:00 17.6 19 Nordeste 32 Nordeste 0 1012.5 -0.6 82
2020-03-05 03:00:00 17.5 21 Nordeste 39 Nordeste 0 1012.7 -0.8 84
2020-03-05 02:00:00 17.8 11 Norte 30 Nordeste 0 1013.2 -0.4 82
2020-03-05 01:00:00 18.2 21 Nordeste 30 Nordeste 0 1013.1 -0.5 82
2020-03-05 00:00:00 18.3 23 Nordeste 35 Este 0 1013.5 -0.2 83